createdAt,value
2023-05-18T00:02:07.043Z,3.03
2023-05-18T00:04:34.679Z,3.80
2023-05-18T00:07:05.345Z,3.40
2023-05-18T00:09:37.048Z,3.25
2023-05-18T00:14:31.394Z,2.95
2023-05-18T00:16:58.007Z,3.28
2023-05-18T00:19:25.150Z,3.53
2023-05-18T00:21:52.595Z,3.08
2023-05-18T00:24:19.365Z,3.50
2023-05-18T00:26:47.177Z,3.85
2023-05-18T00:29:13.751Z,3.70
2023-05-18T00:31:40.541Z,3.50
2023-05-18T00:34:10.696Z,3.80
2023-05-18T00:36:37.886Z,9.20
2023-05-18T00:39:05.869Z,4.78
2023-05-18T00:41:32.922Z,3.83
2023-05-18T00:44:00.532Z,4.35
2023-05-18T00:46:28.386Z,3.70
2023-05-18T00:48:57.169Z,3.60
2023-05-18T00:51:24.708Z,3.72
2023-05-18T00:53:52.642Z,4.30
2023-05-18T00:56:20.066Z,3.20
2023-05-18T00:58:47.829Z,2.80
2023-05-18T01:01:17.831Z,2.83
2023-05-18T01:03:44.718Z,3.35
2023-05-18T01:06:12.850Z,3.10
2023-05-18T01:08:39.410Z,3.38
2023-05-18T01:11:33.842Z,3.90
2023-05-18T01:14:15.943Z,3.33
2023-05-18T01:16:54.288Z,3.92
2023-05-18T01:19:51.874Z,3.70
2023-05-18T01:22:37.740Z,3.00
2023-05-18T01:25:32.058Z,3.55
2023-05-18T01:28:06.582Z,3.22
2023-05-18T01:30:41.195Z,3.40
2023-05-18T01:33:11.051Z,3.50
2023-05-18T01:35:38.648Z,2.90
2023-05-18T01:38:05.171Z,3.22
2023-05-18T01:40:37.133Z,2.72
2023-05-18T01:43:16.057Z,3.53
2023-05-18T01:45:46.984Z,3.10
2023-05-18T01:48:18.542Z,2.75
2023-05-18T01:50:48.893Z,3.58
2023-05-18T01:53:42.913Z,3.00
2023-05-18T01:56:12.650Z,3.90
2023-05-18T01:58:40.112Z,2.88
2023-05-18T02:01:06.973Z,2.88
2023-05-18T02:03:33.626Z,2.92
2023-05-18T02:06:00.357Z,3.38
2023-05-18T02:08:27.014Z,3.45
2023-05-18T02:10:53.522Z,3.13
2023-05-18T02:13:19.986Z,3.67
2023-05-18T02:15:46.519Z,3.33
2023-05-18T02:18:13.034Z,3.20
2023-05-18T02:20:40.501Z,2.47
2023-05-18T02:23:06.973Z,3.42
2023-05-18T02:25:33.776Z,3.10
2023-05-18T02:28:00.407Z,2.50
2023-05-18T02:30:26.906Z,3.08
2023-05-18T02:32:53.416Z,3.10
2023-05-18T02:35:19.872Z,2.67
2023-05-18T02:37:47.261Z,3.17
2023-05-18T02:40:15.824Z,2.72
2023-05-18T02:42:42.491Z,2.95
2023-05-18T02:45:10.770Z,2.97
2023-05-18T02:47:38.410Z,2.95
2023-05-18T02:50:06.389Z,2.78
2023-05-18T02:52:34.011Z,3.00
2023-05-18T02:55:00.585Z,2.55
2023-05-18T02:57:48.164Z,2.60
2023-05-18T03:00:19.697Z,2.92
2023-05-18T03:02:48.354Z,2.47
2023-05-18T03:05:16.598Z,3.28
2023-05-18T03:07:50.545Z,2.80
2023-05-18T03:10:22.555Z,2.80
2023-05-18T03:12:49.707Z,2.90
2023-05-18T03:15:16.946Z,3.10
2023-05-18T03:17:43.712Z,3.15
2023-05-18T03:20:11.593Z,2.22
2023-05-18T03:22:38.180Z,2.35
2023-05-18T03:25:05.188Z,2.90
2023-05-18T03:27:31.855Z,2.78
2023-05-18T03:29:58.438Z,2.72
2023-05-18T03:32:25.510Z,2.92
2023-05-18T03:34:53.068Z,3.03
2023-05-18T03:37:21.296Z,3.33
2023-05-18T03:39:47.730Z,2.95
2023-05-18T03:42:15.374Z,3.08
2023-05-18T03:44:41.998Z,2.53
2023-05-18T03:47:08.855Z,3.03
2023-05-18T03:49:35.787Z,2.63
2023-05-18T03:52:04.380Z,2.92
2023-05-18T03:54:30.831Z,3.00
2023-05-18T03:56:57.272Z,3.03
2023-05-18T03:59:23.700Z,2.75
2023-05-18T04:01:53.870Z,3.58
2023-05-18T04:04:23.475Z,2.72
2023-05-18T04:06:51.547Z,2.70
2023-05-18T04:09:19.068Z,2.50
2023-05-18T04:11:45.757Z,2.75
2023-05-18T04:14:12.446Z,2.90
2023-05-18T04:16:38.984Z,2.80
2023-05-18T04:19:08.144Z,2.53
2023-05-18T04:21:36.055Z,2.78
2023-05-18T04:24:05.427Z,2.85
2023-05-18T04:26:34.634Z,2.88
2023-05-18T04:29:01.111Z,2.45
2023-05-18T04:31:27.985Z,2.90
2023-05-18T04:33:54.716Z,2.83
2023-05-18T04:36:25.618Z,3.13
2023-05-18T04:38:52.754Z,3.55
2023-05-18T04:41:22.647Z,2.88
2023-05-18T04:43:50.257Z,3.00
2023-05-18T04:46:17.098Z,3.40
2023-05-18T04:48:44.999Z,3.78
2023-05-18T04:51:11.510Z,2.97
2023-05-18T04:53:39.013Z,3.65
2023-05-18T04:56:06.411Z,4.28
2023-05-18T04:58:35.554Z,3.72
2023-05-18T05:01:02.199Z,3.25
2023-05-18T05:03:29.028Z,3.05
2023-05-18T05:05:55.853Z,3.25
2023-05-18T05:08:23.810Z,3.88
2023-05-18T05:10:50.255Z,3.97
2023-05-18T05:13:16.700Z,3.08
2023-05-18T05:15:43.223Z,3.97
2023-05-18T05:18:09.758Z,3.38
2023-05-18T05:20:36.309Z,4.30
2023-05-18T05:23:02.858Z,2.92
2023-05-18T05:25:29.823Z,4.28
2023-05-18T05:27:56.446Z,3.17
2023-05-18T05:30:23.367Z,3.22
2023-05-18T05:32:50.016Z,3.25
2023-05-18T05:35:16.860Z,3.55
2023-05-18T05:37:44.542Z,3.40
2023-05-18T05:40:11.324Z,3.50
2023-05-18T05:42:42.296Z,2.78
2023-05-18T05:45:08.934Z,3.28
2023-05-18T05:47:42.656Z,3.75
2023-05-18T05:50:09.295Z,3.42
2023-05-18T05:52:36.627Z,3.15
2023-05-18T05:55:04.778Z,3.05
2023-05-18T05:57:31.752Z,3.60
2023-05-18T05:59:59.260Z,3.55
2023-05-18T06:02:26.788Z,3.55
2023-05-18T06:04:54.364Z,3.60
2023-05-18T06:07:20.910Z,3.75
2023-05-18T06:09:47.413Z,3.78
2023-05-18T06:12:13.975Z,3.85
2023-05-18T06:14:40.499Z,3.20
2023-05-18T06:17:08.179Z,3.30
2023-05-18T06:19:34.709Z,2.95
2023-05-18T06:22:02.144Z,3.83
2023-05-18T06:24:33.927Z,3.33
2023-05-18T06:27:23.350Z,4.05
2023-05-18T06:30:01.420Z,3.65
2023-05-18T06:32:37.354Z,3.15
2023-05-18T06:35:04.417Z,3.15
2023-05-18T06:37:31.429Z,3.38
2023-05-18T06:39:58.482Z,3.60
2023-05-18T06:42:25.018Z,3.47
2023-05-18T06:45:00.457Z,3.75
2023-05-18T06:47:48.576Z,3.92
2023-05-18T06:50:15.104Z,3.00
2023-05-18T06:52:42.137Z,3.40
2023-05-18T06:55:09.603Z,2.88
2023-05-18T06:57:36.160Z,3.15
2023-05-18T07:00:07.078Z,3.42
2023-05-18T07:02:34.223Z,2.97
2023-05-18T07:05:01.524Z,2.72
2023-05-18T07:07:27.984Z,3.20
2023-05-18T07:09:54.939Z,2.95
2023-05-18T07:12:21.474Z,3.15
2023-05-18T07:14:47.980Z,3.00
2023-05-18T07:17:14.491Z,3.60
2023-05-18T07:19:40.985Z,3.38
2023-05-18T07:22:07.650Z,2.65
2023-05-18T07:24:34.225Z,3.13
2023-05-18T07:27:01.007Z,2.90
2023-05-18T07:29:29.783Z,2.90
2023-05-18T07:31:56.351Z,3.45
2023-05-18T07:34:23.782Z,3.25
2023-05-18T07:36:50.616Z,2.70
2023-05-18T07:39:19.698Z,3.25
2023-05-18T07:41:47.332Z,3.03
2023-05-18T07:44:14.319Z,3.53
2023-05-18T07:46:41.295Z,3.78
2023-05-18T07:49:07.769Z,2.60
2023-05-18T07:51:34.301Z,2.00
2023-05-18T07:54:01.017Z,3.10
2023-05-18T07:56:27.483Z,2.70
2023-05-18T07:58:53.917Z,2.78
2023-05-18T08:01:22.050Z,3.17
2023-05-18T08:03:48.586Z,2.58
2023-05-18T08:06:15.097Z,2.67
2023-05-18T08:08:41.561Z,2.67
2023-05-18T08:11:08.011Z,2.80
2023-05-18T08:13:34.477Z,2.80
2023-05-18T08:16:11.294Z,2.50
2023-05-18T08:18:38.666Z,2.53
2023-05-18T08:21:08.075Z,2.53
2023-05-18T08:23:34.960Z,2.63
2023-05-18T08:26:03.327Z,2.50
2023-05-18T08:28:31.083Z,2.10
2023-05-18T08:30:57.993Z,2.80
2023-05-18T08:33:24.494Z,2.47
2023-05-18T08:35:51.183Z,2.22
2023-05-18T08:38:17.780Z,2.42
2023-05-18T08:40:56.578Z,2.30
2023-05-18T08:43:30.085Z,2.38
2023-05-18T08:46:04.061Z,2.65
2023-05-18T08:48:32.131Z,2.80
2023-05-18T08:50:58.973Z,2.53
2023-05-18T08:53:25.863Z,2.70
2023-05-18T08:55:57.431Z,3.17
2023-05-18T08:58:34.316Z,2.42
2023-05-18T09:01:00.849Z,2.83
2023-05-18T09:03:27.539Z,2.13
2023-05-18T09:05:56.237Z,2.53
2023-05-18T09:08:23.565Z,2.03
2023-05-18T09:10:50.855Z,2.40
2023-05-18T09:13:22.550Z,2.42
2023-05-18T09:15:49.164Z,2.47
2023-05-18T09:18:15.621Z,1.95
2023-05-18T09:20:42.140Z,2.00
2023-05-18T09:23:08.608Z,2.50
2023-05-18T09:25:38.741Z,3.00
2023-05-18T09:28:05.249Z,2.23
2023-05-18T09:30:40.218Z,2.28
2023-05-18T09:33:17.161Z,2.13
2023-05-18T09:35:47.084Z,2.13
2023-05-18T09:38:17.456Z,2.80
2023-05-18T09:40:45.382Z,2.85
2023-05-18T09:43:11.896Z,2.25
2023-05-18T09:45:46.894Z,2.53
2023-05-18T09:48:14.348Z,2.30
2023-05-18T09:50:42.725Z,2.10
2023-05-18T09:53:10.160Z,1.77
2023-05-18T09:55:44.352Z,2.08
2023-05-18T09:58:10.899Z,2.38
2023-05-18T10:00:40.687Z,2.40
2023-05-18T10:03:17.175Z,2.60
2023-05-18T10:05:43.674Z,2.35
2023-05-18T10:08:12.421Z,2.33
2023-05-18T10:10:40.687Z,1.95
2023-05-18T10:13:07.224Z,2.70
2023-05-18T10:15:35.427Z,2.95
2023-05-18T10:18:03.553Z,2.10
2023-05-18T10:20:30.380Z,1.92
2023-05-18T10:23:00.759Z,2.47
2023-05-18T10:25:29.095Z,2.03
2023-05-18T10:28:05.057Z,1.83
2023-05-18T10:30:32.870Z,2.47
2023-05-18T10:33:00.337Z,2.33
2023-05-18T10:35:28.438Z,2.42
2023-05-18T10:37:57.564Z,2.22
2023-05-18T10:40:24.412Z,2.50
2023-05-18T10:42:52.236Z,2.05
2023-05-18T10:45:19.413Z,2.35
2023-05-18T10:47:47.835Z,1.88
2023-05-18T10:50:15.214Z,2.40
2023-05-18T10:52:42.393Z,2.10
2023-05-18T10:55:09.298Z,2.08
2023-05-18T10:57:42.245Z,1.92
2023-05-18T11:00:10.192Z,2.42
2023-05-18T11:02:42.222Z,1.85
2023-05-18T11:05:10.364Z,2.25
2023-05-18T11:07:37.793Z,2.40
2023-05-18T11:10:09.523Z,2.50
2023-05-18T11:12:38.345Z,2.05
2023-05-18T11:15:05.972Z,2.25
2023-05-18T11:17:32.529Z,2.17
2023-05-18T11:20:12.757Z,2.05
2023-05-18T11:22:57.179Z,2.13
2023-05-18T11:25:32.874Z,2.50
2023-05-18T11:28:04.678Z,2.08
2023-05-18T11:30:34.371Z,2.75
2023-05-18T11:33:42.885Z,2.20
2023-05-18T11:36:11.711Z,2.42
2023-05-18T11:38:55.461Z,2.17
2023-05-18T11:41:36.093Z,2.40
2023-05-18T11:44:06.899Z,2.53
2023-05-18T11:46:33.922Z,3.00
2023-05-18T11:49:19.894Z,2.03
2023-05-18T11:51:58.445Z,2.63
2023-05-18T11:54:26.550Z,2.40
2023-05-18T11:56:53.486Z,2.75
2023-05-18T11:59:46.089Z,2.47
2023-05-18T12:02:18.568Z,3.25
2023-05-18T12:04:47.913Z,1.83
2023-05-18T12:07:15.429Z,2.40
2023-05-18T12:09:43.313Z,2.28
2023-05-18T12:12:11.403Z,2.17
2023-05-18T12:14:41.037Z,2.00
2023-05-18T12:17:07.691Z,2.30
2023-05-18T12:19:38.834Z,2.10
2023-05-18T12:22:06.355Z,2.42
2023-05-18T12:24:32.889Z,2.10
2023-05-18T12:27:06.846Z,2.13
2023-05-18T12:29:37.590Z,2.55
2023-05-18T12:32:09.417Z,2.93
2023-05-18T12:34:36.603Z,2.28
2023-05-18T12:37:03.817Z,2.50
2023-05-18T12:39:30.401Z,2.55
2023-05-18T12:42:15.084Z,2.33
2023-05-18T12:44:45.874Z,2.53
2023-05-18T12:47:13.725Z,2.33
2023-05-18T12:49:42.666Z,2.50
2023-05-18T12:52:11.428Z,2.78
2023-05-18T12:54:49.585Z,2.17
2023-05-18T12:57:16.335Z,2.28
2023-05-18T12:59:51.430Z,2.38
2023-05-18T13:02:34.913Z,2.47
2023-05-18T13:05:10.103Z,2.63
2023-05-18T13:07:41.583Z,2.20
2023-05-18T13:10:13.269Z,2.47
2023-05-18T13:12:44.512Z,2.70
2023-05-18T13:15:22.257Z,2.40
2023-05-18T13:17:58.797Z,1.90
2023-05-18T13:20:36.454Z,2.65
2023-05-18T13:23:06.882Z,2.35
2023-05-18T13:25:33.754Z,2.60
2023-05-18T13:28:01.317Z,2.30
2023-05-18T13:30:27.861Z,2.10
2023-05-18T13:32:54.507Z,2.55
2023-05-18T13:35:21.446Z,2.05
2023-05-18T13:37:49.102Z,2.50
2023-05-18T13:40:16.784Z,2.17
2023-05-18T13:42:44.201Z,2.30
2023-05-18T13:45:13.749Z,2.20
2023-05-18T13:50:09.427Z,2.13
2023-05-18T13:52:36.512Z,2.47
2023-05-18T13:55:04.690Z,2.25
2023-05-18T13:57:32.321Z,2.65
2023-05-18T13:59:59.612Z,2.35
2023-05-18T14:02:26.542Z,2.45
2023-05-18T14:04:53.542Z,2.22
2023-05-18T14:07:20.150Z,2.08
2023-05-18T14:09:46.602Z,2.88
2023-05-18T14:12:13.129Z,2.40
2023-05-18T14:14:41.028Z,2.70
2023-05-18T14:17:09.822Z,2.15
2023-05-18T14:19:37.677Z,2.53
2023-05-18T14:22:04.237Z,2.03
2023-05-18T14:24:30.753Z,2.35
2023-05-18T14:26:57.311Z,2.40
2023-05-18T14:29:23.762Z,2.60
2023-05-18T14:31:50.279Z,2.20
2023-05-18T14:34:16.744Z,2.78
2023-05-18T14:36:43.197Z,2.47
2023-05-18T14:39:09.655Z,2.28
2023-05-18T14:41:36.215Z,2.30
2023-05-18T14:44:08.538Z,3.00
2023-05-18T14:46:35.961Z,1.80
2023-05-18T14:49:03.017Z,2.45
2023-05-18T14:51:29.485Z,2.22
2023-05-18T14:53:55.956Z,2.00
2023-05-18T14:56:22.765Z,1.90
2023-05-18T14:58:49.294Z,2.30
2023-05-18T15:01:15.734Z,2.45
2023-05-18T15:03:42.576Z,2.03
2023-05-18T15:06:09.542Z,2.47
2023-05-18T15:08:36.183Z,2.33
2023-05-18T15:11:02.640Z,2.63
2023-05-18T15:13:29.109Z,2.50
2023-05-18T15:15:55.678Z,2.03
2023-05-18T15:18:22.169Z,2.05
2023-05-18T15:20:48.696Z,2.17
2023-05-18T15:23:15.205Z,2.42
2023-05-18T15:25:41.728Z,2.85
2023-05-18T15:28:08.996Z,2.13
2023-05-18T15:30:35.470Z,2.47
2023-05-18T15:33:06.205Z,2.20
2023-05-18T15:35:34.768Z,2.22
2023-05-18T15:38:01.231Z,1.90
2023-05-18T15:40:27.856Z,1.77
2023-05-18T15:42:54.306Z,2.35
2023-05-18T15:45:20.788Z,2.08
2023-05-18T15:47:47.258Z,2.17
2023-05-18T15:50:13.779Z,2.50
2023-05-18T15:52:40.225Z,2.58
2023-05-18T15:55:07.024Z,2.42
2023-05-18T15:57:33.656Z,2.45
2023-05-18T16:00:00.207Z,2.13
2023-05-18T16:02:26.727Z,2.55
2023-05-18T16:04:53.184Z,1.88
2023-05-18T16:07:19.764Z,2.10
2023-05-18T16:09:47.966Z,2.20
2023-05-18T16:12:14.451Z,2.10
2023-05-18T16:14:40.916Z,2.35
2023-05-18T16:17:07.542Z,2.30
2023-05-18T16:19:34.067Z,1.95
2023-05-18T16:22:00.669Z,2.20
2023-05-18T16:24:27.117Z,1.95
2023-05-18T16:26:53.565Z,2.60
2023-05-18T16:29:20.024Z,2.13
2023-05-18T16:31:46.580Z,1.98
2023-05-18T16:34:13.034Z,2.35
2023-05-18T16:36:39.589Z,2.67
2023-05-18T16:39:07.778Z,2.15
2023-05-18T16:41:34.227Z,2.30
2023-05-18T16:44:00.810Z,2.28
2023-05-18T16:46:27.649Z,1.80
2023-05-18T16:48:54.187Z,2.20
2023-05-18T16:51:20.714Z,2.42
2023-05-18T16:53:47.205Z,2.10
2023-05-18T16:56:13.666Z,2.35
2023-05-18T16:58:40.137Z,2.55
2023-05-18T17:01:16.078Z,2.25
2023-05-18T17:03:46.283Z,2.42
2023-05-18T17:06:12.852Z,1.88
2023-05-18T17:08:39.322Z,1.83
2023-05-18T17:11:05.811Z,2.35
2023-05-18T17:13:32.279Z,2.35
2023-05-18T17:15:58.736Z,2.28
2023-05-18T17:18:25.229Z,1.77
2023-05-18T17:20:51.677Z,2.35
2023-05-18T17:23:18.809Z,1.92
2023-05-18T17:25:46.300Z,2.50
2023-05-18T17:28:13.827Z,2.17
2023-05-18T17:30:40.297Z,1.92
2023-05-18T17:33:06.895Z,2.38
2023-05-18T17:35:34.468Z,1.95
2023-05-18T17:38:00.931Z,2.22
2023-05-18T17:40:27.406Z,2.10
2023-05-18T17:42:53.873Z,1.92
2023-05-18T17:45:20.361Z,2.28
2023-05-18T17:47:46.843Z,2.10
2023-05-18T17:50:16.103Z,1.67
2023-05-18T17:52:42.541Z,2.15
2023-05-18T17:55:09.531Z,2.20
2023-05-18T17:57:36.063Z,2.40
2023-05-18T18:00:02.556Z,2.10
2023-05-18T18:02:37.754Z,2.33
2023-05-18T18:05:04.391Z,2.50
2023-05-18T18:07:30.829Z,2.92
2023-05-18T18:09:57.270Z,2.20
2023-05-18T18:12:23.712Z,2.38
2023-05-18T18:14:50.260Z,1.88
2023-05-18T18:17:16.757Z,1.88
2023-05-18T18:19:43.252Z,1.70
2023-05-18T18:22:09.736Z,2.05
2023-05-18T18:24:36.267Z,2.28
2023-05-18T18:27:02.906Z,1.90
2023-05-18T18:29:30.981Z,2.00
2023-05-18T18:31:57.548Z,1.95
2023-05-18T18:34:24.037Z,2.08
2023-05-18T18:36:50.559Z,2.28
2023-05-18T18:39:17.010Z,2.13
2023-05-18T18:41:43.506Z,2.40
2023-05-18T18:44:09.966Z,3.72
2023-05-18T18:46:36.512Z,3.95
2023-05-18T18:49:02.989Z,7.32
2023-05-18T18:51:29.637Z,7.35
2023-05-18T18:53:56.138Z,5.68
2023-05-18T18:56:24.269Z,9.93
2023-05-18T18:58:50.946Z,6.70
2023-05-18T19:01:17.508Z,6.10
2023-05-18T19:03:44.075Z,8.90
2023-05-18T19:06:11.336Z,6.25
2023-05-18T19:08:37.826Z,8.00
2023-05-18T19:11:04.297Z,7.10
2023-05-18T19:13:30.751Z,4.95
2023-05-18T19:15:58.098Z,7.10
2023-05-18T19:18:24.705Z,4.45
2023-05-18T19:20:51.199Z,4.18
2023-05-18T19:23:17.708Z,6.03
2023-05-18T19:25:44.191Z,9.57
2023-05-18T19:28:10.710Z,6.72
2023-05-18T19:30:37.288Z,8.25
2023-05-18T19:33:03.779Z,10.27
2023-05-18T19:35:31.867Z,14.65
2023-05-18T19:37:58.901Z,6.50
2023-05-18T19:40:27.216Z,3.78
2023-05-18T19:42:53.811Z,2.10
2023-05-18T19:45:20.321Z,2.72
2023-05-18T19:47:46.845Z,2.45
2023-05-18T19:50:13.376Z,3.70
2023-05-18T19:52:39.876Z,1.90
2023-05-18T19:55:06.759Z,1.95
2023-05-18T19:57:33.227Z,2.10
2023-05-18T19:59:59.814Z,2.00
2023-05-18T20:02:26.368Z,2.80
2023-05-18T20:04:53.802Z,2.70
2023-05-18T20:07:20.519Z,2.28
2023-05-18T20:09:47.072Z,2.42
2023-05-18T20:12:13.586Z,2.38
2023-05-18T20:14:40.064Z,2.47
2023-05-18T20:17:06.582Z,2.50
2023-05-18T20:19:33.207Z,2.55
2023-05-18T20:21:59.896Z,2.78
2023-05-18T20:24:26.359Z,2.58
2023-05-18T20:26:53.277Z,2.70
2023-05-18T20:29:19.772Z,3.70
2023-05-18T20:31:46.356Z,3.45
2023-05-18T20:34:12.872Z,3.53
2023-05-18T20:36:39.369Z,3.15
2023-05-18T20:39:07.206Z,2.90
2023-05-18T20:41:33.733Z,3.53
2023-05-18T20:44:01.927Z,3.25
2023-05-18T20:46:31.081Z,3.83
2023-05-18T20:48:57.768Z,4.00
2023-05-18T20:51:24.695Z,4.05
2023-05-18T20:53:51.444Z,4.03
2023-05-18T20:56:18.812Z,3.33
2023-05-18T20:58:48.627Z,4.35
2023-05-18T21:01:16.661Z,3.25
2023-05-18T21:03:45.239Z,3.85
2023-05-18T21:06:13.060Z,3.65
2023-05-18T21:08:40.534Z,3.42
2023-05-18T21:11:07.124Z,3.95
2023-05-18T21:13:35.696Z,3.38
2023-05-18T21:16:02.360Z,3.72
2023-05-18T21:18:28.842Z,2.97
2023-05-18T21:20:57.350Z,3.30
2023-05-18T21:23:23.847Z,3.10
2023-05-18T21:25:50.650Z,4.22
2023-05-18T21:28:17.541Z,3.35
2023-05-18T21:30:45.628Z,3.10
2023-05-18T21:33:12.271Z,2.42
2023-05-18T21:35:38.897Z,3.28
2023-05-18T21:38:05.350Z,3.10
2023-05-18T21:40:32.063Z,3.70
2023-05-18T21:42:58.731Z,3.33
2023-05-18T21:45:25.450Z,3.65
2023-05-18T21:47:51.946Z,3.67
2023-05-18T21:50:18.436Z,3.17
2023-05-18T21:52:44.890Z,3.10
2023-05-18T21:55:11.428Z,3.45
2023-05-18T21:57:37.910Z,4.22
2023-05-18T22:00:06.343Z,3.08
2023-05-18T22:02:39.323Z,3.00
2023-05-18T22:05:06.275Z,3.65
2023-05-18T22:07:32.709Z,3.70
2023-05-18T22:09:59.215Z,3.60
2023-05-18T22:12:25.678Z,3.30
2023-05-18T22:14:52.138Z,3.55
2023-05-18T22:17:18.597Z,3.70
2023-05-18T22:19:45.562Z,3.17
2023-05-18T22:22:19.477Z,3.42
2023-05-18T22:24:55.476Z,3.28
2023-05-18T22:27:22.184Z,2.72
2023-05-18T22:29:49.149Z,3.28
2023-05-18T22:32:17.729Z,2.88
2023-05-18T22:34:44.202Z,3.03
2023-05-18T22:37:10.879Z,3.45
2023-05-18T22:39:37.336Z,3.50
2023-05-18T22:42:03.906Z,3.50
2023-05-18T22:44:30.482Z,2.95
2023-05-18T22:46:57.101Z,3.35
2023-05-18T22:49:23.687Z,2.80
2023-05-18T22:51:50.119Z,3.78
2023-05-18T22:54:16.567Z,3.15
2023-05-18T22:56:43.004Z,2.72
2023-05-18T22:59:11.526Z,3.10
2023-05-18T23:01:38.268Z,2.65
2023-05-18T23:04:04.853Z,3.85
2023-05-18T23:06:31.698Z,3.47
2023-05-18T23:09:00.403Z,2.55
2023-05-18T23:11:28.521Z,2.95
2023-05-18T23:13:55.135Z,3.05
2023-05-18T23:16:22.658Z,3.97
2023-05-18T23:18:50.540Z,3.42
2023-05-18T23:21:17.161Z,3.75
2023-05-18T23:23:45.588Z,3.72
2023-05-18T23:26:12.687Z,2.80
2023-05-18T23:28:39.222Z,3.72
2023-05-18T23:31:05.680Z,2.95
2023-05-18T23:33:32.420Z,3.17
2023-05-18T23:36:02.472Z,3.55
2023-05-18T23:38:34.816Z,3.22
2023-05-18T23:41:05.198Z,3.60
2023-05-18T23:43:31.847Z,3.67
2023-05-18T23:45:59.800Z,3.38
2023-05-18T23:48:27.575Z,3.38
2023-05-18T23:50:59.629Z,2.88
2023-05-18T23:53:27.008Z,3.42
2023-05-18T23:55:53.826Z,3.83
2023-05-18T23:58:23.523Z,2.72
